Time;durP1;ratioP1;P1;durP2;ratioP2;P2;SDS_P1;SDS_P2;PMS_P1;PMS_P2;Temp;Humidity;BMP_temperature;BMP_pressure;BME280_temperature;BME280_humidity;BME280_pressure;Samples;Min_cycle;Max_cycle;Signal;HPM_P1;HPM_P2
2022/12/28 00:01:33;;;;;;;11.02;4.32;;;5.50;99.90;;;;;;4919744;29;20071;-76
2022/12/28 00:04:02;;;;;;;11.52;4.93;;;5.50;99.90;;;;;;4918699;29;20128;-75
2022/12/28 00:06:28;;;;;;;11.68;4.43;;;5.50;99.90;;;;;;4903758;29;20055;-75
2022/12/28 00:08:55;;;;;;;11.73;4.70;;;6.20;99.90;;;;;;4918589;29;20056;-75
2022/12/28 00:11:23;;;;;;;13.05;5.07;;;5.50;99.90;;;;;;4919296;29;20048;-76
2022/12/28 00:13:48;;;;;;;12.50;4.78;;;5.50;99.90;;;;;;4919142;29;20052;-76
2022/12/28 00:16:25;;;;;;;13.70;5.00;;;6.20;99.90;;;;;;4903797;29;20055;-73
2022/12/28 00:18:51;;;;;;;11.05;5.20;;;5.50;99.90;;;;;;4920327;29;20048;-75
2022/12/28 00:21:16;;;;;;;13.27;4.75;;;5.40;99.90;;;;;;4919315;29;20040;-76
2022/12/28 00:23:43;;;;;;;12.85;4.82;;;5.50;99.90;;;;;;4903012;29;20181;-76
2022/12/28 00:26:11;;;;;;;13.13;5.00;;;5.50;99.90;;;;;;4918901;29;20393;-73
2022/12/28 00:28:37;;;;;;;13.13;5.07;;;5.40;99.90;;;;;;4918998;29;20051;-76
2022/12/28 00:31:03;;;;;;;11.32;4.90;;;5.40;99.90;;;;;;4918728;29;20147;-75
2022/12/28 00:33:29;;;;;;;11.57;5.05;;;5.40;99.90;;;;;;4918841;29;20055;-76
2022/12/28 00:35:57;;;;;;;10.73;4.93;;;5.40;99.90;;;;;;4918833;29;20083;-76
2022/12/28 00:38:23;;;;;;;10.75;4.63;;;5.40;99.90;;;;;;4902500;29;20059;-75
2022/12/28 00:40:49;;;;;;;8.73;4.43;;;5.50;99.90;;;;;;4919273;29;20056;-75
2022/12/28 00:43:15;;;;;;;13.13;5.63;;;5.50;99.90;;;;;;4917309;29;20481;-76
2022/12/28 00:45:44;;;;;;;13.40;5.57;;;5.50;99.90;;;;;;4918936;29;20059;-76
2022/12/28 00:48:10;;;;;;;14.07;5.20;;;5.50;99.90;;;;;;4902793;29;20118;-75
2022/12/28 00:50:36;;;;;;;11.85;5.13;;;5.40;99.90;;;;;;4918699;29;20060;-75
2022/12/28 00:53:01;;;;;;;14.18;5.95;;;5.50;99.90;;;;;;4917961;29;20139;-73
2022/12/28 00:55:27;;;;;;;16.23;5.97;;;5.50;99.90;;;;;;4902712;29;20040;-74
2022/12/28 00:57:53;;;;;;;13.00;5.63;;;5.50;99.90;;;;;;4918386;29;20041;-75
2022/12/28 01:00:19;;;;;;;12.38;5.60;;;5.50;99.90;;;;;;4902767;29;20044;-75
2022/12/28 01:02:44;;;;;;;11.40;5.93;;;5.50;99.90;;;;;;4918133;29;20055;-75
2022/12/28 01:05:10;;;;;;;13.25;6.13;;;5.40;99.90;;;;;;4918841;29;20052;-76
2022/12/28 01:07:36;;;;;;;16.00;5.78;;;5.50;99.90;;;;;;4917190;29;20052;-73
2022/12/28 01:10:01;;;;;;;11.73;5.05;;;5.40;99.90;;;;;;4919841;29;20052;-74
2022/12/28 01:12:28;;;;;;;12.75;5.55;;;5.50;99.90;;;;;;4918182;29;20058;-73
2022/12/28 01:14:54;;;;;;;11.27;6.25;;;5.50;99.90;;;;;;4902820;29;20048;-76
2022/12/28 01:17:19;;;;;;;11.18;5.60;;;5.50;99.90;;;;;;4902616;29;20441;-75
2022/12/28 01:19:45;;;;;;;13.57;5.55;;;5.50;99.90;;;;;;4918179;29;20048;-77
2022/12/28 01:22:11;;;;;;;11.52;5.30;;;5.50;99.90;;;;;;4917719;29;20484;-73
2022/12/28 01:24:36;;;;;;;13.07;6.38;;;5.50;99.90;;;;;;4918044;29;20055;-73
2022/12/28 01:27:02;;;;;;;13.75;6.63;;;5.60;99.90;;;;;;4919262;29;20048;-74
2022/12/28 01:29:28;;;;;;;11.25;6.03;;;5.60;99.90;;;;;;4919344;29;20127;-73
2022/12/28 01:31:53;;;;;;;13.98;5.80;;;5.60;99.90;;;;;;4921000;29;20114;-74
2022/12/28 01:34:19;;;;;;;11.35;5.25;;;5.60;99.90;;;;;;4921378;29;20143;-75
2022/12/28 01:36:45;;;;;;;15.50;6.50;;;5.60;99.90;;;;;;4920708;29;20057;-74
2022/12/28 01:39:11;;;;;;;13.70;6.32;;;5.70;99.90;;;;;;4904906;29;20083;-74
2022/12/28 01:41:39;;;;;;;13.95;6.47;;;5.70;99.90;;;;;;4921181;29;20472;-74
2022/12/28 01:44:06;;;;;;;14.82;6.50;;;5.60;99.90;;;;;;4918056;29;20059;-77
2022/12/28 01:46:48;;;;;;;13.20;6.43;;;5.60;99.90;;;;;;4920776;29;20115;-75
2022/12/28 01:49:20;;;;;;;14.13;6.68;;;5.70;99.90;;;;;;4920705;29;20040;-74
2022/12/28 01:51:49;;;;;;;11.68;6.57;;;5.60;99.90;;;;;;4920895;29;20500;-73
2022/12/28 01:54:15;;;;;;;16.23;6.47;;;5.60;99.90;;;;;;4904446;29;20047;-74
2022/12/28 01:56:42;;;;;;;10.88;6.00;;;5.70;99.90;;;;;;4920720;29;20551;-75
2022/12/28 01:59:08;;;;;;;13.85;6.32;;;5.70;99.90;;;;;;4914200;29;20083;-74
2022/12/28 02:01:34;;;;;;;13.50;6.43;;;5.70;99.90;;;;;;4913252;29;20115;-74
2022/12/28 02:04:00;;;;;;;12.05;6.20;;;5.70;99.90;;;;;;4920259;29;20052;-74
2022/12/28 02:06:26;;;;;;;13.43;6.30;;;5.70;99.90;;;;;;4917407;29;20060;-75
2022/12/28 02:09:16;;;;;;;9.93;4.65;;;5.70;99.90;;;;;;4912221;29;20131;-73
2022/12/28 02:11:42;;;;;;;10.85;5.55;;;5.70;99.90;;;;;;4921785;29;20068;-74
2022/12/28 02:14:10;;;;;;;13.55;6.03;;;5.80;99.90;;;;;;4923435;29;20052;-75
2022/12/28 02:16:36;;;;;;;10.88;5.68;;;5.80;99.90;;;;;;4920120;29;20051;-73
2022/12/28 02:19:04;;;;;;;11.18;6.03;;;5.80;99.90;;;;;;4889070;29;20052;-73
2022/12/28 02:21:49;;;;;;;11.20;5.60;;;5.80;99.90;;;;;;4904797;29;20046;-74
2022/12/28 02:25:00;;;;;;;11.88;6.32;;;5.80;99.90;;;;;;4918819;29;20066;-75
2022/12/28 02:27:40;;;;;;;13.38;6.13;;;5.80;99.90;;;;;;4909262;29;20063;-73
2022/12/28 02:30:09;;;;;;;12.40;6.60;;;5.90;99.90;;;;;;4920118;29;20436;-74
2022/12/28 02:33:22;;;;;;;13.65;6.05;;;5.90;99.90;;;;;;4919861;29;20051;-74
2022/12/28 02:35:53;;;;;;;;;;;5.90;99.90;;;;;;4906985;29;20604;-75
2022/12/28 02:38:46;;;;;;;13.18;6.10;;;5.90;99.90;;;;;;4899042;29;19962;-75
2022/12/28 02:41:18;;;;;;;11.10;5.97;;;5.90;99.90;;;;;;4919078;29;20059;-74
2022/12/28 02:43:44;;;;;;;9.88;4.38;;;6.60;99.90;;;;;;4916517;29;20059;-72
2022/12/28 02:52:40;;;;;;;14.55;7.28;;;6.00;99.90;;;;;;4936111;29;20118;-74
2022/12/28 02:58:22;;;;;;;12.35;6.00;;;6.00;99.90;;;;;;4935346;29;20056;-72
2022/12/28 03:01:10;;;;;;;13.10;8.05;;;6.00;99.90;;;;;;4917803;29;20052;-75
2022/12/28 03:03:48;;;;;;;15.85;8.48;;;6.00;99.90;;;;;;4919090;29;20519;-75
2022/12/28 03:09:23;;;;;;;15.65;9.25;;;6.00;99.90;;;;;;4918433;29;20583;-76
2022/12/28 03:12:28;;;;;;;15.85;9.65;;;6.00;99.90;;;;;;4919424;29;20055;-75
2022/12/28 03:15:02;;;;;;;16.15;9.57;;;6.00;99.90;;;;;;4899806;29;20063;-76
2022/12/28 03:31:33;;;;;;;20.90;10.57;;;6.10;99.90;;;;;;4918851;29;20067;-76
2022/12/28 03:34:06;;;;;;;13.43;8.93;;;6.10;99.90;;;;;;4918458;29;20067;-75
2022/12/28 03:36:51;;;;;;;17.80;9.48;;;6.20;99.90;;;;;;4919177;29;20044;-73
2022/12/28 03:39:29;;;;;;;16.40;9.63;;;6.20;99.90;;;;;;4902590;29;20059;-75
2022/12/28 03:45:19;;;;;;;14.90;8.27;;;6.20;99.90;;;;;;4915921;29;20064;-74
2022/12/28 03:47:47;;;;;;;19.63;10.68;;;6.20;99.90;;;;;;4918730;29;20527;-73
2022/12/28 03:50:13;;;;;;;13.60;8.93;;;6.20;99.90;;;;;;4918937;29;20082;-75
2022/12/28 03:52:39;;;;;;;20.60;11.48;;;6.20;99.90;;;;;;4902554;29;20048;-75
2022/12/28 03:55:05;;;;;;;17.13;10.88;;;6.30;99.90;;;;;;4918930;29;20060;-72
2022/12/28 03:57:31;;;;;;;18.33;10.60;;;6.30;99.90;;;;;;4911895;29;20052;-76
2022/12/28 03:59:57;;;;;;;15.60;8.90;;;6.30;99.90;;;;;;4919119;29;20054;-73
2022/12/28 04:02:22;;;;;;;14.95;10.65;;;6.30;99.90;;;;;;4918902;29;20440;-77
2022/12/28 04:04:48;;;;;;;16.50;10.10;;;6.30;99.90;;;;;;4902767;29;20056;-75
2022/12/28 04:07:14;;;;;;;16.42;8.95;;;6.40;99.90;;;;;;4902065;29;20519;-74
2022/12/28 04:09:39;;;;;;;15.85;9.23;;;6.40;99.90;;;;;;4918634;29;20052;-75
2022/12/28 04:12:05;;;;;;;17.08;9.60;;;6.40;99.90;;;;;;4903157;29;20047;-77
2022/12/28 04:14:31;;;;;;;16.58;10.23;;;6.40;99.90;;;;;;4918348;29;20047;-78
2022/12/28 04:16:57;;;;;;;15.98;9.52;;;6.40;99.90;;;;;;4903182;29;20436;-76
2022/12/28 04:19:22;;;;;;;16.30;9.32;;;6.40;99.90;;;;;;4935121;29;20040;-75
2022/12/28 04:21:48;;;;;;;13.98;8.82;;;6.50;99.90;;;;;;4919015;29;20054;-72
2022/12/28 04:24:14;;;;;;;15.05;8.90;;;6.40;99.90;;;;;;4902222;29;20047;-75
2022/12/28 04:26:39;;;;;;;12.68;8.23;;;6.50;99.90;;;;;;4903336;29;20048;-74
2022/12/28 04:29:05;;;;;;;14.23;9.45;;;6.50;99.90;;;;;;4902842;29;20062;-75
2022/12/28 04:31:31;;;;;;;13.88;8.52;;;6.50;99.90;;;;;;4917552;29;20052;-73
2022/12/28 04:33:57;;;;;;;12.32;7.97;;;6.50;99.90;;;;;;4901933;29;20110;-76
2022/12/28 04:36:23;;;;;;;14.15;9.40;;;6.50;99.90;;;;;;4918485;29;20079;-76
2022/12/28 04:38:49;;;;;;;12.25;8.32;;;6.50;99.90;;;;;;4917838;29;20090;-74
2022/12/28 04:41:15;;;;;;;14.25;8.85;;;6.60;99.90;;;;;;4918747;29;20484;-75
2022/12/28 04:43:40;;;;;;;14.15;8.50;;;6.50;99.90;;;;;;4906865;29;20551;-78
2022/12/28 04:46:10;;;;;;;11.30;7.38;;;6.50;99.90;;;;;;4904253;29;20051;-73
2022/12/28 04:48:36;;;;;;;12.10;7.40;;;6.60;99.90;;;;;;4921761;29;20385;-76
2022/12/28 04:51:15;;;;;;;11.75;7.88;;;6.60;99.90;;;;;;4906715;29;20055;-78
2022/12/28 04:53:41;;;;;;;10.90;7.47;;;6.70;99.90;;;;;;4921073;29;20052;-79
2022/12/28 04:56:08;;;;;;;11.82;7.63;;;6.60;99.90;;;;;;4906065;29;20452;-72
2022/12/28 04:58:35;;;;;;;11.55;7.82;;;6.70;99.90;;;;;;4921396;29;20067;-73
2022/12/28 05:01:06;;;;;;;10.80;7.10;;;6.70;99.90;;;;;;4921831;29;20054;-77
2022/12/28 05:03:31;;;;;;;9.52;6.72;;;6.80;99.90;;;;;;4921514;29;20051;-74
2022/12/28 05:06:02;;;;;;;12.60;7.75;;;6.70;99.90;;;;;;4921319;29;20392;-77
2022/12/28 05:08:29;;;;;;;12.15;7.60;;;6.70;99.90;;;;;;4920625;29;20055;-77
2022/12/28 05:10:59;;;;;;;11.75;7.88;;;6.70;99.90;;;;;;4921923;29;20070;-75
2022/12/28 05:13:25;;;;;;;13.43;8.63;;;6.70;99.90;;;;;;4921426;29;20046;-80
2022/12/28 05:15:50;;;;;;;12.35;8.40;;;6.80;99.90;;;;;;4905736;29;20047;-78
2022/12/28 05:18:16;;;;;;;12.35;7.93;;;6.80;99.90;;;;;;4920576;29;20432;-77
2022/12/28 05:20:42;;;;;;;13.73;9.40;;;6.80;99.90;;;;;;4921609;29;20135;-76
2022/12/28 05:23:08;;;;;;;11.15;7.85;;;6.80;99.90;;;;;;4904716;29;20055;-76
2022/12/28 05:25:33;;;;;;;13.20;9.32;;;6.90;99.90;;;;;;4905716;29;20400;-76
2022/12/28 05:27:59;;;;;;;11.00;8.05;;;6.90;99.90;;;;;;4919392;29;20463;-78
2022/12/28 05:30:25;;;;;;;13.38;8.50;;;6.90;99.90;;;;;;4909473;29;20052;-79
2022/12/28 05:32:50;;;;;;;12.38;8.63;;;6.90;99.90;;;;;;4921291;29;20130;-76
2022/12/28 05:35:16;;;;;;;13.82;8.57;;;6.90;99.90;;;;;;4904935;29;20437;-74
2022/12/28 05:37:42;;;;;;;11.05;8.25;;;7.00;99.90;;;;;;4937380;29;20411;-77
2022/12/28 05:40:08;;;;;;;12.20;7.85;;;7.00;99.90;;;;;;4920964;29;20106;-76
2022/12/28 05:42:34;;;;;;;13.55;9.48;;;7.00;99.90;;;;;;4921238;29;20063;-79
2022/12/28 05:45:00;;;;;;;13.00;9.27;;;7.00;99.90;;;;;;4889503;29;20050;-80
2022/12/28 05:47:26;;;;;;;13.48;9.77;;;7.00;99.90;;;;;;4921140;29;20047;-76
2022/12/28 05:49:52;;;;;;;13.45;9.77;;;7.00;99.90;;;;;;4920852;29;20392;-76
2022/12/28 05:52:17;;;;;;;14.10;9.50;;;7.10;99.90;;;;;;4936762;29;20043;-76
2022/12/28 05:54:43;;;;;;;13.77;10.38;;;7.10;99.90;;;;;;4920519;29;20476;-78
2022/12/28 05:57:09;;;;;;;14.45;10.50;;;7.10;99.90;;;;;;4919865;29;20054;-79
2022/12/28 05:59:35;;;;;;;13.38;9.63;;;7.20;99.90;;;;;;4921023;29;20056;-80
2022/12/28 06:02:00;;;;;;;14.98;10.65;;;7.20;99.90;;;;;;4937363;29;20071;-79
2022/12/28 06:04:26;;;;;;;13.55;10.57;;;7.20;99.90;;;;;;4916847;29;20495;-73
2022/12/28 06:06:53;;;;;;;14.77;11.07;;;7.20;99.90;;;;;;4930922;29;20122;-80
2022/12/28 06:09:19;;;;;;;13.38;10.70;;;7.30;99.90;;;;;;4916388;29;20048;-79
2022/12/28 06:11:45;;;;;;;14.70;10.90;;;7.20;99.90;;;;;;4903346;29;20408;-76
2022/12/28 06:14:11;;;;;;;15.30;12.02;;;7.30;99.90;;;;;;4916560;29;20095;-77
2022/12/28 06:16:39;;;;;;;14.10;11.00;;;7.30;99.90;;;;;;4916149;29;20485;-78
2022/12/28 06:19:08;;;;;;;15.15;10.65;;;7.30;99.90;;;;;;4920478;29;20529;-79
2022/12/28 06:21:36;;;;;;;14.23;11.60;;;7.40;99.90;;;;;;4919242;29;20111;-79
2022/12/28 06:24:03;;;;;;;15.23;11.43;;;7.40;99.90;;;;;;4918605;29;20070;-78
2022/12/28 06:26:30;;;;;;;14.30;11.57;;;7.40;99.90;;;;;;4917123;29;20102;-75
2022/12/28 06:28:56;;;;;;;13.43;10.40;;;7.40;99.90;;;;;;4916149;29;20047;-74
2022/12/28 06:31:25;;;;;;;13.90;10.90;;;7.50;99.90;;;;;;4917512;29;20107;-77
2022/12/28 06:33:53;;;;;;;14.82;11.95;;;7.50;99.90;;;;;;4898135;29;20137;-77
2022/12/28 06:36:21;;;;;;;15.60;11.40;;;7.50;99.90;;;;;;4921453;29;20044;-73
2022/12/28 06:38:48;;;;;;;12.05;9.38;;;7.50;99.90;;;;;;4935920;29;20052;-78
2022/12/28 06:41:15;;;;;;;14.65;11.63;;;7.50;99.90;;;;;;4919413;29;20269;-76
2022/12/28 06:43:42;;;;;;;14.75;10.82;;;7.50;99.90;;;;;;4915712;29;20099;-79
2022/12/28 06:46:09;;;;;;;14.43;11.82;;;7.60;99.90;;;;;;4915486;29;20048;-76
2022/12/28 06:48:35;;;;;;;15.88;12.25;;;7.70;99.90;;;;;;4914672;29;20040;-74
2022/12/28 06:51:03;;;;;;;16.65;13.52;;;7.60;99.90;;;;;;4915608;29;20039;-78
2022/12/28 06:53:31;;;;;;;15.95;12.43;;;7.60;99.90;;;;;;4901013;29;20052;-79
2022/12/28 06:56:06;;;;;;;16.60;12.80;;;7.70;99.90;;;;;;4899487;29;20111;-77
2022/12/28 06:58:32;;;;;;;17.10;12.65;;;7.70;99.90;;;;;;4902055;29;20052;-82
2022/12/28 07:01:17;;;;;;;15.70;12.13;;;7.70;99.90;;;;;;4916103;29;20107;-79
2022/12/28 07:03:44;;;;;;;16.60;13.25;;;7.70;99.90;;;;;;4917879;29;20135;-79
2022/12/28 07:06:10;;;;;;;16.50;12.52;;;7.70;99.90;;;;;;4918969;29;20051;-83
2022/12/28 07:08:36;;;;;;;17.02;13.13;;;7.70;99.90;;;;;;4921718;29;20061;-78
2022/12/28 07:11:14;;;;;;;17.00;13.68;;;7.80;99.90;;;;;;4919655;29;20500;-79
2022/12/28 07:13:40;;;;;;;15.88;12.30;;;7.80;99.90;;;;;;4912098;29;20082;-78
2022/12/28 07:16:18;;;;;;;17.85;14.52;;;7.80;99.90;;;;;;4919861;29;20515;-77
2022/12/28 07:18:44;;;;;;;16.80;13.85;;;7.80;99.90;;;;;;4899258;29;20111;-77
2022/12/28 07:21:15;;;;;;;19.85;14.75;;;7.80;99.90;;;;;;4914548;29;20048;-77
2022/12/28 07:23:41;;;;;;;17.42;13.90;;;7.80;99.90;;;;;;4914032;29;20130;-77
2022/12/28 07:26:09;;;;;;;20.40;16.58;;;7.90;99.90;;;;;;4917592;29;20044;-78
2022/12/28 07:28:37;;;;;;;20.17;16.65;;;7.90;99.90;;;;;;4901757;29;20452;-76
2022/12/28 07:31:08;;;;;;;20.90;16.73;;;7.90;99.90;;;;;;4898018;29;20044;-75
2022/12/28 07:33:34;;;;;;;19.77;15.80;;;7.90;99.90;;;;;;4893670;29;20489;-77
2022/12/28 07:36:01;;;;;;;21.85;17.08;;;7.90;99.90;;;;;;4911398;29;20539;-77
2022/12/28 07:38:26;;;;;;;20.75;16.27;;;7.90;99.90;;;;;;4910092;29;20079;-78
2022/12/28 07:40:59;;;;;;;21.42;18.27;;;8.00;99.90;;;;;;4911348;29;20083;-78
2022/12/28 07:43:25;;;;;;;20.63;16.60;;;8.00;99.90;;;;;;4897012;29;20119;-77
2022/12/28 07:46:08;;;;;;;21.70;17.80;;;8.00;99.90;;;;;;4896428;29;20473;-78
2022/12/28 07:48:35;;;;;;;21.98;18.17;;;8.00;99.90;;;;;;4920951;29;20050;-77
2022/12/28 07:51:07;;;;;;;21.75;17.85;;;8.00;99.90;;;;;;4912207;29;20051;-79
2022/12/28 07:53:33;;;;;;;22.27;17.98;;;8.10;99.90;;;;;;4913430;29;20071;-76
2022/12/28 07:55:59;;;;;;;23.63;18.73;;;8.00;99.90;;;;;;4912241;29;20091;-78
2022/12/28 07:58:25;;;;;;;25.90;19.85;;;8.10;99.90;;;;;;4905635;29;20441;-77
2022/12/28 08:00:50;;;;;;;24.48;19.35;;;8.10;99.90;;;;;;4905083;29;20041;-78
2022/12/28 08:03:17;;;;;;;23.83;20.27;;;8.20;99.90;;;;;;4903868;29;20095;-76
2022/12/28 08:05:43;;;;;;;23.63;18.95;;;8.20;99.90;;;;;;4905993;29;20048;-77
2022/12/28 08:08:09;;;;;;;24.50;19.75;;;8.20;99.90;;;;;;4913959;29;20044;-76
2022/12/28 08:10:34;;;;;;;23.42;19.23;;;8.20;99.90;;;;;;4916895;29;20099;-77
2022/12/28 08:13:00;;;;;;;21.60;19.02;;;8.20;99.90;;;;;;4919034;29;20086;-77
2022/12/28 08:15:27;;;;;;;25.08;19.27;;;8.20;99.90;;;;;;4914854;29;20052;-78
2022/12/28 08:17:54;;;;;;;24.13;19.45;;;8.20;99.90;;;;;;4917362;29;20052;-77
2022/12/28 08:20:22;;;;;;;24.80;20.33;;;8.30;99.90;;;;;;4914183;29;20088;-79
2022/12/28 08:22:48;;;;;;;24.80;19.38;;;8.30;99.90;;;;;;4914900;29;20176;-78
2022/12/28 08:25:14;;;;;;;23.27;19.58;;;8.30;99.90;;;;;;4906220;29;20095;-77
2022/12/28 08:27:40;;;;;;;24.35;19.38;;;8.30;99.90;;;;;;4915144;29;20123;-77
2022/12/28 08:30:07;;;;;;;28.67;22.45;;;8.30;99.90;;;;;;4924411;29;20162;-78
2022/12/28 08:32:32;;;;;;;25.48;20.65;;;8.30;99.90;;;;;;4921821;29;20500;-77
2022/12/28 08:34:58;;;;;;;21.48;18.38;;;8.30;99.90;;;;;;4939399;29;20044;-76
2022/12/28 08:37:24;;;;;;;22.75;18.67;;;8.30;99.90;;;;;;4922880;29;20386;-74
2022/12/28 08:39:49;;;;;;;22.83;16.88;;;8.30;99.90;;;;;;4918564;29;20051;-73
2022/12/28 08:42:15;;;;;;;22.20;17.65;;;8.40;99.90;;;;;;4914345;29;20126;-77
2022/12/28 08:44:41;;;;;;;24.48;18.67;;;8.40;99.90;;;;;;4908177;29;20048;-77
2022/12/28 08:47:06;;;;;;;21.30;16.40;;;8.30;99.90;;;;;;4918388;29;20708;-76
2022/12/28 08:49:32;;;;;;;20.48;16.38;;;8.40;99.90;;;;;;4919266;29;20046;-78
2022/12/28 08:51:58;;;;;;;17.63;14.38;;;8.30;99.90;;;;;;4920223;29;20054;-76
2022/12/28 08:54:23;;;;;;;21.05;15.88;;;8.40;99.90;;;;;;4924145;29;20065;-78
2022/12/28 08:56:49;;;;;;;19.13;14.82;;;8.40;99.90;;;;;;4937334;29;20051;-76
2022/12/28 08:59:17;;;;;;;18.42;13.90;;;8.40;99.90;;;;;;4939496;29;20051;-75
2022/12/28 09:01:44;;;;;;;19.15;14.55;;;8.40;99.90;;;;;;4919466;29;20095;-76
2022/12/28 09:04:16;;;;;;;17.55;14.40;;;8.40;99.90;;;;;;4927280;29;20357;-77
2022/12/28 09:06:42;;;;;;;16.05;13.18;;;8.40;99.90;;;;;;4904295;29;20448;-77
2022/12/28 09:09:12;;;;;;;17.10;13.93;;;8.40;99.90;;;;;;4928265;29;20278;-78
2022/12/28 09:11:38;;;;;;;16.08;12.95;;;8.40;99.90;;;;;;4922293;29;20407;-76
2022/12/28 09:14:07;;;;;;;17.50;14.48;;;8.40;99.90;;;;;;4925880;29;20051;-76
2022/12/28 09:16:33;;;;;;;16.52;13.95;;;8.40;99.90;;;;;;4910733;29;20059;-79
2022/12/28 09:19:01;;;;;;;17.90;14.18;;;8.40;99.90;;;;;;4928620;29;20428;-72
2022/12/28 09:21:30;;;;;;;17.02;13.18;;;8.40;99.90;;;;;;4936325;29;20412;-75
2022/12/28 09:23:56;;;;;;;16.08;12.80;;;8.50;99.90;;;;;;4923491;29;20070;-77
2022/12/28 09:26:24;;;;;;;16.00;12.73;;;8.50;99.90;;;;;;4904602;29;20044;-77
2022/12/28 09:28:55;;;;;;;16.67;12.88;;;8.50;99.90;;;;;;4921396;29;20122;-77
2022/12/28 09:31:23;;;;;;;17.60;13.77;;;8.50;99.90;;;;;;4927787;29;20056;-76
2022/12/28 09:33:59;;;;;;;17.80;13.85;;;8.50;99.90;;;;;;4903146;29;20292;-77
2022/12/28 09:36:30;;;;;;;16.60;14.07;;;8.60;99.90;;;;;;4908272;29;20131;-77
2022/12/28 09:38:57;;;;;;;15.93;12.75;;;8.60;99.90;;;;;;4915796;29;20544;-79
2022/12/28 09:41:40;;;;;;;17.58;13.63;;;8.60;99.90;;;;;;4907553;29;20432;-77
2022/12/28 09:44:38;;;;;;;15.73;12.45;;;8.70;99.90;;;;;;4915938;29;20059;-79
2022/12/28 09:47:16;;;;;;;13.68;10.40;;;8.60;99.90;;;;;;4905749;29;20052;-76
2022/12/28 09:50:18;;;;;;;15.52;12.52;;;8.70;99.90;;;;;;4922739;29;20100;-79
2022/12/28 09:53:05;;;;;;;16.65;13.13;;;8.70;99.90;;;;;;4909994;29;20071;-77
2022/12/28 09:55:33;;;;;;;18.23;13.88;;;8.70;99.90;;;;;;4919024;29;20056;-78
2022/12/28 09:58:01;;;;;;;16.33;13.82;;;8.70;99.90;;;;;;4919772;29;20086;-79
2022/12/28 10:00:40;;;;;;;17.42;13.50;;;8.70;99.90;;;;;;4917474;29;20039;-75
2022/12/28 10:03:19;;;;;;;16.42;12.07;;;8.70;99.90;;;;;;4907951;29;20492;-81
2022/12/28 10:05:45;;;;;;;18.35;14.57;;;8.80;99.90;;;;;;4926908;29;20048;-77
2022/12/28 10:08:17;;;;;;;17.88;13.52;;;8.80;99.90;;;;;;4900702;29;20047;-81
2022/12/28 10:10:43;;;;;;;;;;;8.80;99.90;;;;;;4910661;29;20400;-77
2022/12/28 10:13:36;;;;;;;16.23;13.18;;;8.80;99.90;;;;;;4914655;29;19930;-78
2022/12/28 10:16:04;;;;;;;17.48;13.73;;;8.80;99.90;;;;;;4903947;29;20107;-80
2022/12/28 10:18:30;;;;;;;16.40;13.93;;;8.80;99.90;;;;;;4902421;29;20115;-78
2022/12/28 10:20:56;;;;;;;16.33;13.60;;;8.80;99.90;;;;;;4926536;29;20044;-79
2022/12/28 10:23:28;;;;;;;18.67;14.10;;;8.80;99.90;;;;;;4924207;29;20358;-83
2022/12/28 10:25:55;;;;;;;;;;;8.80;99.90;;;;;;4902211;29;20852;-83
2022/12/28 10:28:26;;;;;;;17.52;12.50;;;8.80;99.90;;;;;;4915524;29;20018;-80
2022/12/28 10:31:11;;;;;;;15.60;11.80;;;8.80;99.90;;;;;;4920667;29;20126;-77
2022/12/28 10:33:48;;;;;;;14.85;12.82;;;8.90;99.90;;;;;;4908968;29;20405;-78
2022/12/28 10:36:15;;;;;;;14.82;12.18;;;8.90;99.90;;;;;;4915663;29;20043;-80
2022/12/28 10:38:47;;;;;;;14.35;11.50;;;8.90;99.90;;;;;;4921405;29;20556;-79
2022/12/28 10:41:15;;;;;;;15.23;10.88;;;8.90;99.90;;;;;;4905494;29;20499;-76
2022/12/28 10:43:48;;;;;;;14.82;11.50;;;9.00;99.90;;;;;;4914202;29;20536;-82
2022/12/28 10:46:22;;;;;;;15.32;11.98;;;9.00;99.90;;;;;;4888099;29;20055;-79
2022/12/28 10:49:02;;;;;;;12.98;9.63;;;9.00;99.90;;;;;;4905685;29;20469;-77
2022/12/28 10:51:29;;;;;;;13.27;10.38;;;9.00;99.90;;;;;;4916574;29;20134;-81
2022/12/28 10:53:56;;;;;;;13.75;10.18;;;9.00;99.90;;;;;;4918100;29;20082;-77
2022/12/28 10:56:31;;;;;;;13.95;10.57;;;9.00;99.90;;;;;;4928869;29;20126;-78
2022/12/28 10:59:09;;;;;;;12.18;9.95;;;9.00;99.90;;;;;;4908687;29;20062;-79
2022/12/28 11:01:35;;;;;;;14.70;9.95;;;9.00;99.90;;;;;;4911042;29;20128;-79
2022/12/28 11:04:04;;;;;;;14.35;10.70;;;9.00;99.90;;;;;;4914872;29;20115;-77
2022/12/28 11:06:33;;;;;;;15.10;11.27;;;9.00;99.90;;;;;;4937242;29;20118;-78
2022/12/28 11:09:02;;;;;;;13.35;9.60;;;9.00;99.90;;;;;;4915054;29;20103;-76
2022/12/28 11:11:27;;;;;;;11.70;8.82;;;9.00;99.90;;;;;;4921572;29;20126;-76
2022/12/28 11:14:19;;;;;;;12.13;8.50;;;9.00;99.90;;;;;;4935114;29;20119;-76
2022/12/28 11:16:45;;;;;;;10.68;8.68;;;9.10;99.90;;;;;;4911769;29;20585;-79
2022/12/28 11:19:12;;;;;;;10.30;7.53;;;9.10;99.90;;;;;;4901161;29;20071;-78
2022/12/28 11:21:39;;;;;;;11.25;8.18;;;9.10;99.90;;;;;;4915951;29;20404;-78
2022/12/28 11:24:05;;;;;;;11.73;8.43;;;9.10;99.90;;;;;;4904686;29;20060;-78
2022/12/28 11:26:32;;;;;;;10.00;7.55;;;9.10;99.90;;;;;;4914885;29;20533;-78
2022/12/28 11:29:00;;;;;;;11.52;7.88;;;9.10;99.90;;;;;;4910096;29;20046;-80
2022/12/28 11:31:36;;;;;;;9.70;7.18;;;9.10;99.90;;;;;;4923657;29;20456;-77
2022/12/28 11:34:05;;;;;;;10.18;7.68;;;9.10;99.90;;;;;;4905189;29;20134;-82
2022/12/28 11:36:38;;;;;;;10.02;7.13;;;9.10;99.90;;;;;;4904491;29;20103;-80
2022/12/28 11:39:26;;;;;;;10.20;7.57;;;9.10;99.90;;;;;;4904103;29;20086;-78
2022/12/28 11:41:53;;;;;;;8.90;6.97;;;9.10;99.90;;;;;;4916117;29;20083;-79
2022/12/28 11:44:40;;;;;;;8.57;6.78;;;9.10;99.90;;;;;;4914358;29;20134;-81
2022/12/28 11:47:32;;;;;;;8.98;7.25;;;9.10;99.90;;;;;;4919998;29;20051;-77
2022/12/28 11:50:32;;;;;;;9.25;7.00;;;9.10;99.90;;;;;;4903874;29;20051;-77
2022/12/28 11:53:00;;;;;;;10.43;7.50;;;9.10;99.90;;;;;;4922829;29;20047;-77
2022/12/28 11:55:44;;;;;;;9.68;7.57;;;9.10;99.90;;;;;;4914513;29;20058;-78
2022/12/28 11:58:40;;;;;;;8.80;6.72;;;9.10;99.90;;;;;;4925642;29;20509;-80
2022/12/28 12:01:32;;;;;;;9.90;6.80;;;9.20;99.90;;;;;;4903863;29;20051;-77
2022/12/28 12:03:57;;;;;;;8.77;6.50;;;9.20;99.90;;;;;;4906555;29;20396;-73
2022/12/28 12:06:45;;;;;;;8.30;5.78;;;9.20;99.90;;;;;;4914875;29;20051;-79
2022/12/28 12:09:37;;;;;;;10.18;6.38;;;9.20;99.90;;;;;;4910368;29;20052;-76
2022/12/28 12:12:12;;;;;;;7.50;4.70;;;9.20;99.90;;;;;;4916831;29;20060;-78
2022/12/28 12:14:45;;;;;;;6.93;5.05;;;9.20;99.90;;;;;;4911000;29;20044;-75
2022/12/28 12:17:19;;;;;;;7.93;5.55;;;9.20;99.90;;;;;;4904119;29;20048;-78
2022/12/28 12:20:05;;;;;;;8.77;5.60;;;9.20;99.90;;;;;;4906833;29;20056;-77
2022/12/28 12:22:47;;;;;;;7.95;5.25;;;9.20;99.90;;;;;;4916479;29;20156;-77
2022/12/28 12:25:42;;;;;;;8.13;5.10;;;9.20;99.90;;;;;;4913400;29;20473;-76
2022/12/28 12:28:23;;;;;;;8.98;6.45;;;9.20;99.90;;;;;;4920913;29;20481;-76
2022/12/28 12:30:50;;;;;;;8.85;6.38;;;9.20;99.90;;;;;;4923908;29;20181;-79
2022/12/28 12:33:43;;;;;;;8.10;5.80;;;9.10;99.90;;;;;;4909381;29;20052;-78
2022/12/28 12:36:15;;;;;;;8.98;5.97;;;9.10;99.90;;;;;;4906011;29;20374;-82
2022/12/28 12:38:55;;;;;;;8.35;5.97;;;9.10;99.90;;;;;;4920123;29;20044;-77
2022/12/28 12:41:31;;;;;;;9.30;5.55;;;9.10;99.90;;;;;;4917047;29;20055;-81
2022/12/28 12:44:34;;;;;;;8.50;6.05;;;9.20;99.90;;;;;;4911395;29;20528;-80
2022/12/28 12:47:21;;;;;;;8.20;5.35;;;9.10;99.90;;;;;;4920063;29;20438;-79
2022/12/28 12:50:12;;;;;;;8.60;5.35;;;9.10;99.90;;;;;;4914057;29;20047;-80
2022/12/28 12:52:37;;;;;;;7.97;4.93;;;9.10;99.90;;;;;;4914848;29;20063;-77
2022/12/28 12:55:41;;;;;;;8.40;5.50;;;9.10;99.90;;;;;;4920464;29;20047;-79
2022/12/28 12:58:28;;;;;;;7.20;4.90;;;9.10;99.90;;;;;;4918636;29;20134;-76
2022/12/28 13:01:09;;;;;;;8.57;5.50;;;9.10;99.90;;;;;;4915829;29;20051;-79
2022/12/28 13:03:45;;;;;;;7.72;5.35;;;9.10;99.90;;;;;;4922812;29;20431;-76
2022/12/28 13:06:17;;;;;;;8.43;6.53;;;9.10;99.90;;;;;;4906791;29;20126;-76
2022/12/28 13:08:58;;;;;;;8.20;5.70;;;9.10;99.90;;;;;;4908094;29;20048;-76
2022/12/28 13:11:24;;;;;;;7.88;5.63;;;9.10;99.90;;;;;;4930133;29;20059;-75
2022/12/28 13:13:52;;;;;;;7.53;5.20;;;9.10;99.90;;;;;;4925844;29;20059;-78
2022/12/28 13:16:28;;;;;;;5.95;4.03;;;9.10;99.90;;;;;;4915066;29;20043;-77
2022/12/28 13:18:55;;;;;;;7.65;4.47;;;9.10;99.90;;;;;;4916583;29;20048;-79
2022/12/28 13:21:22;;;;;;;7.03;4.03;;;9.10;99.90;;;;;;4918301;29;20072;-78
2022/12/28 13:23:49;;;;;;;6.28;4.40;;;9.10;99.90;;;;;;4905637;29;20115;-81
2022/12/28 13:26:16;;;;;;;6.55;4.30;;;9.10;99.90;;;;;;4916422;29;20068;-76
2022/12/28 13:28:54;;;;;;;6.47;4.03;;;9.10;99.90;;;;;;4923921;29;20044;-78
2022/12/28 13:31:35;;;;;;;6.95;4.07;;;9.10;99.90;;;;;;4930407;29;20110;-78
2022/12/28 13:34:26;;;;;;;6.00;3.42;;;9.10;99.90;;;;;;4917110;29;20079;-75